Friendswood, TX

4:43 AM CST on December 22, 2014 (GMT -0600)
Clover | Change Station
CLOSE
Current Station
Airport
Location: Houston Clover,
Elevation: 43 ft
Nearby Weather Stations

Elev 43 ft 29.52 °N, 95.24 °W | Updated 50 minutes ago

Partly Cloudy
Partly Cloudy
57 °F
Feels Like 57 °F
N
6
Wind Variable Wind from SE

Today
High -- | Low -- °F
--% Chance of Precip.
Yesterday
High -- | Low -- °F
Precip. -- in
7:12 AM 5:27 PM
New Moon, 0% visible
Pressure 29.80 in
Visibility 3.0 miles
Clouds Few 300 ft
Scattered Clouds 4600 ft
Dew Point 56 °F
Humidity 96%
Rainfall 0.00 in
Snow Depth Not available.
UV 0 out of 12
Pollen 6.20 out of 12
Air Quality Not available.
Flu Activity Not available.
METAR KLVJ 220953Z AUTO 13005KT 3SM BR FEW003 SCT046 14/13 A2980 RMK AO2 SLP091 T01390133

More Conditions Fewer Conditions

Pressure 29.80 in
Visibility 3.0 miles
Clouds Few 300 ft
Scattered Clouds 4600 ft
Dew Point 56 °F
Humidity 96%
Rainfall 0.00 in
Snow Depth Not available.
UV 0 out of 12
Pollen 6.20 out of 12
Air Quality Not available.
Flu Activity Not available.
METAR KLVJ 220953Z AUTO 13005KT 3SM BR FEW003 SCT046 14/13 A2980 RMK AO2 SLP091 T01390133

More Conditions Fewer Conditions

10-Day Weather Forecast

Almanac

Astronomy

Dec. 22, 2014 Rise Set
Actual Time
Civil Twilight
Nautical Twilight
Astronomical Twilight
Moon
Length of Visible Light
Length of Day
Tomorrow will be .
, % of the Moon is Illuminated

Today's Extremes

State Highs State Lows

Community

WunderPhotos

Upload Photos

1,779,583 photos uploaded!

WunderBlogs® & News

Nearby

Air Quality

  Air Quality AQ Index Pollutant
Not available.

Snow Depth

Station Depth Elevation

Earthquake Activity

City Distance Mag. Time & Date
Minimum magnitude displayed is 2.5.

Coastal Water Temperatures

Place Temperature

Nearby Weather Stations